createdAt,value
2018-07-12T00:00:04.628Z,26.73
2018-07-12T00:02:31.957Z,31.07
2018-07-12T00:04:59.277Z,29.40
2018-07-12T00:07:26.596Z,30.10
2018-07-12T00:09:53.902Z,26.97
2018-07-12T00:12:21.546Z,29.73
2018-07-12T00:14:48.954Z,29.03
2018-07-12T00:17:16.254Z,33.50
2018-07-12T00:19:43.808Z,29.43
2018-07-12T00:22:11.508Z,27.53
2018-07-12T00:24:38.906Z,31.17
2018-07-12T00:27:06.257Z,29.60
2018-07-12T00:29:33.541Z,27.97
2018-07-12T00:32:00.949Z,31.10
2018-07-12T00:34:28.617Z,30.93
2018-07-12T00:36:55.905Z,28.10
2018-07-12T00:39:23.234Z,28.57
2018-07-12T00:41:50.700Z,28.03
2018-07-12T00:44:18.089Z,30.07
2018-07-12T00:46:45.396Z,28.10
2018-07-12T00:49:12.879Z,28.67
2018-07-12T00:51:40.322Z,31.40
2018-07-12T00:54:07.641Z,27.27
2018-07-12T00:56:34.946Z,28.00
2018-07-12T00:59:02.257Z,28.50
2018-07-12T01:01:29.778Z,28.47
2018-07-12T01:03:57.080Z,29.87
2018-07-12T01:06:24.557Z,28.93
2018-07-12T01:08:51.872Z,28.33
2018-07-12T01:11:19.161Z,28.50
2018-07-12T01:13:46.819Z,28.77
2018-07-12T01:16:14.378Z,29.07
2018-07-12T01:18:41.960Z,28.80
2018-07-12T01:21:09.626Z,28.70
2018-07-12T01:23:36.918Z,27.80
2018-07-12T01:26:04.781Z,35.40
2018-07-12T01:28:32.345Z,29.43
2018-07-12T01:31:00.009Z,28.33
2018-07-12T01:33:27.425Z,30.40
2018-07-12T01:35:55.055Z,31.00
2018-07-12T01:38:22.819Z,27.77
2018-07-12T01:40:50.117Z,31.50
2018-07-12T01:43:17.484Z,31.57
2018-07-12T01:45:44.984Z,36.20
2018-07-12T01:48:12.543Z,31.77
2018-07-12T01:50:40.091Z,33.70
2018-07-12T01:53:07.743Z,33.03
2018-07-12T01:55:35.333Z,32.10
2018-07-12T01:58:02.649Z,36.70
2018-07-12T02:00:29.943Z,37.50
2018-07-12T02:02:57.280Z,42.37
2018-07-12T02:05:24.826Z,40.97
2018-07-12T02:07:52.179Z,45.83
2018-07-12T02:10:19.558Z,47.53
2018-07-12T02:12:47.121Z,47.40
2018-07-12T02:15:14.431Z,56.77
2018-07-12T02:17:41.743Z,60.23
2018-07-12T02:20:09.061Z,56.93
2018-07-12T02:22:37.350Z,54.13
2018-07-12T02:25:04.704Z,51.03
2018-07-12T02:27:32.063Z,56.30
2018-07-12T02:29:59.360Z,68.73
2018-07-12T02:32:27.042Z,67.97
2018-07-12T02:34:54.337Z,70.57
2018-07-12T02:37:21.685Z,73.00
2018-07-12T02:39:49.029Z,73.20
2018-07-12T02:42:16.325Z,73.57
2018-07-12T02:44:43.670Z,70.93
2018-07-12T02:47:11.259Z,65.00
2018-07-12T02:49:38.880Z,64.33
2018-07-12T02:52:06.367Z,63.93
2018-07-12T02:54:33.799Z,64.30
2018-07-12T02:57:01.116Z,59.30
2018-07-12T02:59:28.845Z,61.77
2018-07-12T03:01:56.186Z,65.80
2018-07-12T03:04:23.547Z,62.77
2018-07-12T03:06:50.882Z,62.07
2018-07-12T03:09:18.257Z,66.60
2018-07-12T03:11:45.729Z,65.67
2018-07-12T03:14:13.162Z,66.17
2018-07-12T03:16:40.753Z,61.17
2018-07-12T03:19:08.080Z,61.27
2018-07-12T03:21:35.537Z,60.20
2018-07-12T03:24:03.806Z,59.90
2018-07-12T03:26:31.131Z,57.83
2018-07-12T03:28:58.613Z,64.33
2018-07-12T03:31:26.053Z,56.30
2018-07-12T03:33:53.449Z,67.73
2018-07-12T03:36:20.815Z,60.20
2018-07-12T03:38:48.100Z,60.53
2018-07-12T03:41:15.458Z,60.07
2018-07-12T03:43:42.824Z,56.73
2018-07-12T03:46:10.191Z,52.87
2018-07-12T03:48:37.582Z,55.07
2018-07-12T03:51:04.891Z,53.83
2018-07-12T03:53:32.226Z,54.67
2018-07-12T03:55:59.553Z,58.10
2018-07-12T03:58:27.653Z,46.57
2018-07-12T04:00:55.175Z,56.40
2018-07-12T04:03:22.456Z,54.20
2018-07-12T04:05:49.797Z,48.77
2018-07-12T04:08:17.183Z,50.67
2018-07-12T04:10:44.572Z,45.10
2018-07-12T04:13:11.993Z,44.80
2018-07-12T04:15:39.338Z,35.33
2018-07-12T04:18:06.873Z,32.93
2018-07-12T04:20:34.474Z,28.83
2018-07-12T04:23:01.817Z,28.87
2018-07-12T04:25:29.241Z,25.70
2018-07-12T04:27:56.797Z,26.57
2018-07-12T04:30:24.234Z,24.60
2018-07-12T04:35:25.331Z,22.23
2018-07-12T04:37:52.780Z,20.57
2018-07-12T04:40:20.028Z,21.37
2018-07-12T04:42:47.503Z,19.67
2018-07-12T04:45:15.016Z,22.20
2018-07-12T04:47:42.534Z,21.40
2018-07-12T04:50:10.081Z,22.23
2018-07-12T04:52:37.418Z,20.40
2018-07-12T04:55:04.888Z,17.73
2018-07-12T04:57:32.388Z,17.57
2018-07-12T04:59:59.822Z,18.37
2018-07-12T05:02:27.356Z,18.10
2018-07-12T05:04:55.075Z,21.37
2018-07-12T05:07:22.946Z,16.43
2018-07-12T05:09:50.714Z,17.00
2018-07-12T05:12:18.243Z,16.70
2018-07-12T05:14:46.295Z,15.13
2018-07-12T05:17:14.196Z,15.47
2018-07-12T05:19:41.586Z,13.97
2018-07-12T05:22:09.183Z,14.77
2018-07-12T05:24:36.522Z,15.10
2018-07-12T05:27:03.976Z,15.97
2018-07-12T05:29:31.441Z,15.83
2018-07-12T05:31:58.765Z,16.67
2018-07-12T05:34:26.489Z,17.63
2018-07-12T05:36:56.550Z,13.80
2018-07-12T05:39:25.532Z,13.73
2018-07-12T05:41:55.171Z,14.57
2018-07-12T05:44:23.610Z,16.13
2018-07-12T05:46:52.177Z,14.43
2018-07-12T05:49:20.705Z,15.43
2018-07-12T05:51:49.240Z,20.00
2018-07-12T05:54:18.794Z,14.10
2018-07-12T05:56:48.064Z,14.33
2018-07-12T05:59:17.271Z,14.57
2018-07-12T06:01:57.313Z,15.57
2018-07-12T06:04:26.199Z,15.17
2018-07-12T06:06:54.912Z,15.83
2018-07-12T06:09:23.916Z,15.30
2018-07-12T06:11:52.901Z,14.93
2018-07-12T06:14:22.104Z,16.53
2018-07-12T06:16:51.348Z,18.37
2018-07-12T06:19:19.894Z,20.93
2018-07-12T06:21:48.669Z,23.67
2018-07-12T06:24:17.699Z,24.83
2018-07-12T06:26:46.476Z,28.17
2018-07-12T06:29:14.959Z,30.23
2018-07-12T06:31:43.980Z,31.90
2018-07-12T06:34:13.548Z,30.00
2018-07-12T06:36:42.203Z,32.07
2018-07-12T06:39:11.998Z,32.70
2018-07-12T06:41:40.861Z,35.33
2018-07-12T06:44:09.427Z,36.80
2018-07-12T06:46:38.040Z,39.77
2018-07-12T06:49:07.074Z,41.47
2018-07-12T06:51:35.538Z,42.70
2018-07-12T06:54:04.137Z,43.67
2018-07-12T06:56:32.752Z,42.30
2018-07-12T06:59:01.262Z,44.70
2018-07-12T07:01:29.764Z,45.50
2018-07-12T07:03:58.269Z,47.67
2018-07-12T07:06:26.713Z,45.10
2018-07-12T07:08:55.625Z,46.70
2018-07-12T07:11:24.377Z,49.37
2018-07-12T07:13:53.067Z,49.70
2018-07-12T07:16:21.733Z,48.73
2018-07-12T07:18:50.236Z,49.53
2018-07-12T07:21:18.729Z,49.60
2018-07-12T07:23:47.380Z,49.10
2018-07-12T07:26:15.904Z,51.77
2018-07-12T07:28:45.397Z,49.23
2018-07-12T07:31:13.856Z,49.87
2018-07-12T07:33:42.673Z,51.33
2018-07-12T07:36:11.645Z,53.20
2018-07-12T07:38:40.601Z,51.67
2018-07-12T07:41:09.041Z,52.50
2018-07-12T07:43:37.869Z,53.60
2018-07-12T07:46:06.636Z,52.23
2018-07-12T07:48:35.245Z,53.97
2018-07-12T07:51:04.092Z,54.50
2018-07-12T07:53:32.800Z,60.13
2018-07-12T07:56:01.463Z,56.07
2018-07-12T07:58:29.992Z,52.47
2018-07-12T08:00:58.464Z,52.20
2018-07-12T08:03:27.637Z,52.57
2018-07-12T08:05:55.873Z,51.63
2018-07-12T08:08:24.735Z,47.90
2018-07-12T08:10:54.067Z,49.27
2018-07-12T08:13:22.616Z,49.17
2018-07-12T08:15:51.569Z,45.10
2018-07-12T08:18:20.653Z,45.17
2018-07-12T08:20:49.737Z,40.80
2018-07-12T08:23:18.823Z,40.55
2018-07-12T08:25:47.453Z,45.45
2018-07-12T08:28:25.726Z,43.85
2018-07-12T08:30:54.842Z,44.88
2018-07-12T08:33:23.918Z,46.90
2018-07-12T08:35:53.080Z,42.88
2018-07-12T08:38:21.798Z,39.27
2018-07-12T08:40:50.646Z,42.70
2018-07-12T08:43:19.964Z,42.98
2018-07-12T08:45:49.099Z,42.73
2018-07-12T08:48:18.576Z,41.90
2018-07-12T08:50:47.597Z,42.00
2018-07-12T08:53:16.814Z,41.83
2018-07-12T08:55:45.773Z,43.08
2018-07-12T08:58:14.786Z,42.65
2018-07-12T09:00:43.484Z,39.05
2018-07-12T09:03:12.437Z,39.13
2018-07-12T09:05:41.142Z,41.10
2018-07-12T09:08:10.136Z,41.20
2018-07-12T09:10:38.738Z,37.93
2018-07-12T09:13:07.504Z,33.45
2018-07-12T09:15:36.465Z,36.48
2018-07-12T09:18:06.337Z,34.98
2018-07-12T09:20:35.548Z,34.18
2018-07-12T09:23:04.564Z,31.02
2018-07-12T09:25:34.221Z,31.30
2018-07-12T09:28:03.533Z,30.95
2018-07-12T09:30:33.236Z,33.73
2018-07-12T09:33:02.116Z,35.20
2018-07-12T09:35:30.969Z,29.00
2018-07-12T09:38:00.347Z,29.30
2018-07-12T09:40:29.396Z,31.42
2018-07-12T09:42:58.338Z,30.90
2018-07-12T09:45:27.435Z,29.23
2018-07-12T09:47:56.433Z,29.75
2018-07-12T09:50:25.473Z,30.10
2018-07-12T09:52:54.539Z,32.13
2018-07-12T09:55:23.305Z,30.05
2018-07-12T09:58:11.459Z,28.42
2018-07-12T10:00:45.760Z,30.70
2018-07-12T10:03:20.820Z,31.07
2018-07-12T10:05:55.172Z,29.05
2018-07-12T10:08:29.938Z,28.38
2018-07-12T10:11:04.228Z,27.37
2018-07-12T10:13:38.286Z,29.12
2018-07-12T10:16:12.583Z,32.20
2018-07-12T10:18:41.074Z,29.10
2018-07-12T10:21:10.084Z,24.80
2018-07-12T10:23:38.908Z,26.75
2018-07-12T10:26:07.533Z,23.77
2018-07-12T10:28:36.208Z,21.55
2018-07-12T10:31:04.725Z,20.48
2018-07-12T10:33:33.167Z,20.72
2018-07-12T10:36:01.654Z,22.20
2018-07-12T10:38:30.230Z,19.87
2018-07-12T10:40:58.823Z,22.85
2018-07-12T10:43:28.020Z,24.02
2018-07-12T10:45:56.808Z,23.45
2018-07-12T10:48:26.295Z,24.00
2018-07-12T10:50:54.917Z,23.95
2018-07-12T10:53:23.397Z,22.00
2018-07-12T10:55:52.329Z,23.20
2018-07-12T10:58:21.597Z,23.95
2018-07-12T11:00:50.661Z,22.67
2018-07-12T11:03:19.287Z,20.82
2018-07-12T11:05:48.207Z,20.12
2018-07-12T11:08:17.082Z,20.37
2018-07-12T11:10:45.961Z,21.12
2018-07-12T11:13:17.738Z,19.75
2018-07-12T11:15:47.131Z,20.55
2018-07-12T11:18:15.877Z,20.43
2018-07-12T11:20:44.405Z,21.13
2018-07-12T11:23:13.000Z,21.83
2018-07-12T11:25:41.953Z,22.93
2018-07-12T11:28:10.699Z,24.23
2018-07-12T11:30:40.017Z,31.97
2018-07-12T11:33:20.020Z,21.20
2018-07-12T11:35:49.012Z,15.00
2018-07-12T11:38:17.754Z,14.67
2018-07-12T11:40:46.912Z,14.60
2018-07-12T11:43:16.444Z,18.07
2018-07-12T11:45:45.403Z,15.97
2018-07-12T11:48:14.026Z,15.97
2018-07-12T11:50:42.576Z,15.13
2018-07-12T11:53:11.497Z,17.20
2018-07-12T11:55:40.134Z,15.80
2018-07-12T11:58:09.013Z,18.30
2018-07-12T12:00:37.857Z,14.37
2018-07-12T12:03:06.606Z,13.23
2018-07-12T12:05:35.969Z,13.50
2018-07-12T12:08:04.927Z,13.80
2018-07-12T12:10:33.603Z,13.33
2018-07-12T12:13:03.525Z,10.40
2018-07-12T12:15:32.458Z,14.97
2018-07-12T12:18:01.758Z,12.40
2018-07-12T12:20:30.227Z,12.03
2018-07-12T12:22:59.169Z,14.73
2018-07-12T12:25:27.648Z,12.77
2018-07-12T12:27:56.960Z,13.77
2018-07-12T12:30:26.166Z,14.27
2018-07-12T12:32:54.925Z,13.40
2018-07-12T12:35:23.453Z,13.13
2018-07-12T12:37:52.958Z,12.50
2018-07-12T12:40:21.556Z,11.07
2018-07-12T12:42:50.267Z,12.47
2018-07-12T12:45:18.853Z,11.87
2018-07-12T12:47:47.542Z,11.17
2018-07-12T12:50:16.423Z,13.73
2018-07-12T12:52:45.061Z,13.00
2018-07-12T12:55:14.037Z,11.20
2018-07-12T12:57:42.550Z,13.53
2018-07-12T13:00:11.110Z,12.47
2018-07-12T13:02:39.581Z,10.80
2018-07-12T13:05:08.185Z,11.27
2018-07-12T13:07:36.902Z,11.10
2018-07-12T13:10:05.838Z,15.00
2018-07-12T13:12:34.392Z,12.27
2018-07-12T13:15:03.069Z,12.07
2018-07-12T13:17:31.652Z,11.33
2018-07-12T13:20:00.483Z,12.00
2018-07-12T13:22:29.222Z,13.10
2018-07-12T13:24:58.112Z,12.80
2018-07-12T13:27:26.821Z,9.80
2018-07-12T13:29:55.482Z,11.37
2018-07-12T13:32:23.971Z,10.57
2018-07-12T13:34:52.566Z,11.33
2018-07-12T13:37:21.144Z,8.07
2018-07-12T13:39:50.592Z,10.03
2018-07-12T13:42:19.644Z,10.20
2018-07-12T13:44:48.173Z,8.03
2018-07-12T13:47:17.121Z,11.13
2018-07-12T13:49:45.871Z,10.17
2018-07-12T13:52:14.449Z,10.27
2018-07-12T13:54:43.030Z,7.60
2018-07-12T13:57:11.800Z,7.80
2018-07-12T13:59:40.411Z,7.60
2018-07-12T14:02:08.998Z,9.03
2018-07-12T14:04:37.604Z,9.43
2018-07-12T14:07:06.322Z,7.23
2018-07-12T14:09:35.109Z,7.00
2018-07-12T14:12:03.852Z,6.60
2018-07-12T14:14:33.234Z,6.40
2018-07-12T14:17:02.121Z,6.63
2018-07-12T14:19:31.461Z,7.33
2018-07-12T14:22:00.227Z,9.53
2018-07-12T14:24:29.180Z,6.67
2018-07-12T14:26:58.004Z,11.23
2018-07-12T14:29:26.761Z,6.77
2018-07-12T14:31:55.369Z,7.67
2018-07-12T14:34:24.573Z,9.10
2018-07-12T14:36:53.320Z,9.77
2018-07-12T14:39:22.046Z,7.83
2018-07-12T14:41:50.837Z,8.33
2018-07-12T14:44:19.661Z,7.03
2018-07-12T14:46:48.290Z,6.33
2018-07-12T14:49:17.583Z,10.00
2018-07-12T14:51:46.272Z,5.67
2018-07-12T14:54:14.966Z,7.63
2018-07-12T14:56:43.893Z,7.80
2018-07-12T14:59:12.793Z,6.63
2018-07-12T15:01:41.275Z,6.77
2018-07-12T15:04:10.099Z,7.97
2018-07-12T15:06:38.946Z,7.47
2018-07-12T15:09:08.303Z,7.47
2018-07-12T15:11:37.965Z,7.23
2018-07-12T15:14:06.967Z,8.00
2018-07-12T15:16:35.493Z,8.37
2018-07-12T15:19:04.281Z,6.57
2018-07-12T15:21:32.990Z,7.80
2018-07-12T15:24:01.853Z,8.23
2018-07-12T15:26:31.056Z,6.93
2018-07-12T15:28:59.925Z,6.27
2018-07-12T15:31:28.705Z,12.47
2018-07-12T15:33:57.237Z,8.20
2018-07-12T15:36:25.743Z,9.53
2018-07-12T15:38:54.246Z,9.97
2018-07-12T15:41:22.430Z,5.87
2018-07-12T15:43:51.072Z,5.83
2018-07-12T15:46:19.776Z,8.93
2018-07-12T15:48:48.552Z,8.03
2018-07-12T15:51:18.686Z,8.00
2018-07-12T15:53:50.799Z,9.40
2018-07-12T15:56:19.535Z,6.57
2018-07-12T15:58:50.659Z,6.67
2018-07-12T16:01:19.701Z,7.83
2018-07-12T16:03:49.028Z,8.67
2018-07-12T16:06:18.530Z,8.40
2018-07-12T16:21:47.703Z,6.57
2018-07-12T16:24:16.711Z,10.47
2018-07-12T16:26:45.455Z,5.07
2018-07-12T16:29:14.145Z,7.90
2018-07-12T16:31:43.105Z,6.90
2018-07-12T16:34:11.742Z,6.13
2018-07-12T16:36:40.374Z,4.77
2018-07-12T16:39:09.340Z,8.10
2018-07-12T16:41:37.848Z,5.83
2018-07-12T16:44:06.684Z,8.17
2018-07-12T16:46:35.236Z,9.43
2018-07-12T16:49:03.781Z,6.97
2018-07-12T16:51:32.551Z,7.27
2018-07-12T16:54:01.209Z,5.80
2018-07-12T16:56:29.946Z,6.63
2018-07-12T16:58:59.254Z,4.47
2018-07-12T17:01:27.809Z,6.03
2018-07-12T17:03:56.318Z,5.13
2018-07-12T17:06:24.950Z,3.80
2018-07-12T17:08:53.432Z,5.13
2018-07-12T17:11:21.960Z,5.03
2018-07-12T17:13:51.027Z,6.70
2018-07-12T17:16:19.647Z,6.80
2018-07-12T17:18:48.296Z,4.70
2018-07-12T17:21:16.882Z,7.60
2018-07-12T17:23:45.562Z,5.20
2018-07-12T17:26:14.265Z,5.87
2018-07-12T17:28:43.704Z,5.97
2018-07-12T17:31:12.285Z,4.73
2018-07-12T17:33:40.938Z,4.53
2018-07-12T17:36:09.507Z,5.07
2018-07-12T17:38:38.308Z,8.70
2018-07-12T17:41:07.064Z,8.40
2018-07-12T17:43:36.613Z,5.73
2018-07-12T17:46:05.217Z,6.60
2018-07-12T17:48:34.185Z,4.63
2018-07-12T17:51:02.610Z,5.87
2018-07-12T17:53:31.583Z,5.70
2018-07-12T17:56:00.236Z,5.17
2018-07-12T17:58:29.015Z,9.17
2018-07-12T18:00:57.851Z,6.13
2018-07-12T18:03:26.669Z,8.77
2018-07-12T18:05:55.533Z,7.37
2018-07-12T18:08:24.195Z,4.83
2018-07-12T18:10:53.158Z,6.30
2018-07-12T18:13:22.087Z,5.63
2018-07-12T18:15:50.673Z,4.53
2018-07-12T18:18:19.613Z,5.53
2018-07-12T18:20:48.300Z,6.43
2018-07-12T18:23:16.988Z,6.57
2018-07-12T18:25:45.787Z,7.87
2018-07-12T18:28:14.587Z,5.47
2018-07-12T18:30:43.306Z,4.30
2018-07-12T18:33:11.649Z,5.57
2018-07-12T18:35:40.343Z,6.33
2018-07-12T18:38:09.054Z,5.17
2018-07-12T18:40:38.111Z,3.87
2018-07-12T18:43:06.929Z,4.97
2018-07-12T18:45:35.750Z,8.00
2018-07-12T18:48:04.620Z,6.90
2018-07-12T18:50:34.349Z,4.80
2018-07-12T18:53:03.241Z,4.30
2018-07-12T18:55:32.001Z,5.50
2018-07-12T18:58:01.385Z,7.10
2018-07-12T19:00:30.163Z,6.53
2018-07-12T19:02:58.940Z,6.17
2018-07-12T19:05:28.165Z,4.80
2018-07-12T19:07:57.135Z,5.83
2018-07-12T19:10:25.895Z,5.30
2018-07-12T19:12:54.425Z,6.73
2018-07-12T19:15:22.976Z,4.67
2018-07-12T19:17:52.025Z,5.40
2018-07-12T19:20:20.808Z,4.93
2018-07-12T19:22:49.429Z,4.83
2018-07-12T19:25:18.116Z,5.27
2018-07-12T19:27:46.757Z,7.23
2018-07-12T19:30:15.372Z,5.13
2018-07-12T19:32:44.189Z,5.27
2018-07-12T19:35:13.404Z,7.47
2018-07-12T19:37:41.997Z,6.03
2018-07-12T19:40:11.056Z,5.43
2018-07-12T19:42:39.930Z,6.13
2018-07-12T19:45:08.804Z,4.90
2018-07-12T19:47:37.704Z,3.97
2018-07-12T19:50:06.765Z,5.80
2018-07-12T19:52:35.867Z,4.10
2018-07-12T19:55:04.971Z,5.27
2018-07-12T19:57:33.917Z,6.17
2018-07-12T20:00:03.018Z,5.13
2018-07-12T20:02:32.022Z,4.70
2018-07-12T20:05:00.713Z,4.43
2018-07-12T20:07:35.998Z,6.27
2018-07-12T20:10:04.630Z,6.93
2018-07-12T20:12:33.229Z,5.03
2018-07-12T20:15:02.375Z,7.03
2018-07-12T20:17:31.305Z,7.70
2018-07-12T20:20:00.221Z,3.87
2018-07-12T20:22:28.919Z,6.10
2018-07-12T20:24:57.523Z,4.10
2018-07-12T20:27:26.141Z,4.20
2018-07-12T20:29:54.630Z,5.87
2018-07-12T20:32:23.120Z,5.03
2018-07-12T20:34:51.591Z,4.50
2018-07-12T20:37:20.184Z,8.27
2018-07-12T20:39:48.688Z,5.37
2018-07-12T20:42:17.330Z,5.33
2018-07-12T20:44:45.998Z,3.70
2018-07-12T20:47:14.589Z,6.80
2018-07-12T20:49:43.107Z,4.57
2018-07-12T20:52:11.855Z,5.50
2018-07-12T20:54:40.476Z,5.97
2018-07-12T20:57:09.225Z,4.53
2018-07-12T20:59:37.750Z,6.57
2018-07-12T21:02:06.575Z,5.27
2018-07-12T21:04:35.287Z,5.07
2018-07-12T21:07:03.933Z,6.60
2018-07-12T21:09:33.204Z,5.60
2018-07-12T21:12:01.898Z,4.03
2018-07-12T21:14:30.513Z,7.60
2018-07-12T21:16:59.112Z,7.90
2018-07-12T21:19:27.832Z,6.47
2018-07-12T21:21:56.490Z,7.27
2018-07-12T21:24:25.144Z,5.00
2018-07-12T21:26:53.674Z,4.63
2018-07-12T21:29:22.466Z,6.00
2018-07-12T21:31:51.138Z,4.83
2018-07-12T21:34:19.782Z,7.30
2018-07-12T21:36:48.289Z,5.70
2018-07-12T21:39:16.994Z,8.63
2018-07-12T21:41:45.478Z,7.97
2018-07-12T21:44:14.013Z,5.57
2018-07-12T21:46:42.621Z,8.10
2018-07-12T21:49:11.087Z,5.43
2018-07-12T21:51:39.637Z,6.13
2018-07-12T21:54:08.249Z,6.50
2018-07-12T21:56:36.711Z,4.77
2018-07-12T21:59:05.509Z,5.97
2018-07-12T22:01:34.066Z,5.30
2018-07-12T22:04:02.729Z,7.10
2018-07-12T22:06:44.384Z,5.60
2018-07-12T22:09:13.004Z,6.67
2018-07-12T22:11:41.477Z,9.20
2018-07-12T22:14:10.064Z,6.20
2018-07-12T22:16:38.637Z,5.07
2018-07-12T22:19:07.386Z,6.03
2018-07-12T22:21:35.898Z,6.40
2018-07-12T22:24:04.835Z,4.77
2018-07-12T22:26:33.365Z,7.33
2018-07-12T22:29:02.134Z,6.47
2018-07-12T22:31:30.624Z,5.53
2018-07-12T22:33:59.322Z,7.80
2018-07-12T22:36:27.949Z,9.33
2018-07-12T22:38:56.488Z,7.87
2018-07-12T22:41:25.058Z,6.80
2018-07-12T22:43:53.553Z,6.70
2018-07-12T22:46:22.154Z,6.53
2018-07-12T22:48:50.943Z,7.77
2018-07-12T22:51:19.561Z,5.10
2018-07-12T22:53:47.797Z,7.43
2018-07-12T22:56:16.691Z,7.70
2018-07-12T22:58:45.317Z,6.27
2018-07-12T23:01:13.581Z,5.90
2018-07-12T23:03:42.266Z,8.40
2018-07-12T23:06:11.058Z,6.77
2018-07-12T23:08:39.666Z,7.93
2018-07-12T23:11:08.287Z,8.43
2018-07-12T23:13:37.800Z,9.70
2018-07-12T23:16:06.426Z,10.20
2018-07-12T23:18:35.517Z,8.40
2018-07-12T23:21:04.102Z,7.93
2018-07-12T23:23:32.786Z,7.50
2018-07-12T23:26:01.308Z,10.23
2018-07-12T23:28:29.790Z,8.63
2018-07-12T23:30:58.441Z,11.33
2018-07-12T23:33:27.036Z,6.87
2018-07-12T23:35:55.925Z,8.70
2018-07-12T23:38:24.623Z,9.40
2018-07-12T23:40:53.127Z,6.67
2018-07-12T23:43:21.997Z,11.77
2018-07-12T23:45:50.515Z,8.70
2018-07-12T23:48:19.084Z,10.33
2018-07-12T23:50:47.802Z,9.93
2018-07-12T23:53:16.352Z,10.00
2018-07-12T23:55:45.357Z,8.73
2018-07-12T23:58:13.493Z,8.67
